Tuscaloosa, Alabama
Current Conditions -  °F | °C
As of 5:53 PM on Friday 24 Oct 2014 (Local Time) from KTCL Reporting Station
Clear Clear  
Wind Chill: 71°   Ceiling: Unl
Heat Index: 71°   Visibility: 10mi
Dew Point: 42°   Wind: 6mph
Humidity: 35%   Direction: 340°NNW
Pressure: 30.05"   Gusts: NA
Location:  33.21°N, 87.56°W
Report Text: KTCL 242253Z 34005KT 10SM CLR 22/06 A3005 RMK AO2 SLP173 T02170056
Loading
Personal Weather Stations






























Interactive Weather Map
Tropical Storm Tracking
New forecast layout! Learn more

10-Day Weather Forecast

Advertisements
Track Severe Weather on mobile